sensor_id;sensor_type;location;lat;lon;timestamp;pressure;altitude;pressure_sealevel;temperature;humidity
68525;BME280;55524;51.380;13.372;2024-03-06T00:01:28;100872.88;;;2.10;100.00
68525;BME280;55524;51.380;13.372;2024-03-06T00:03:54;100873.69;;;2.02;100.00
68525;BME280;55524;51.380;13.372;2024-03-06T00:06:29;100870.22;;;2.04;100.00
68525;BME280;55524;51.380;13.372;2024-03-06T00:08:56;100876.28;;;1.97;100.00
68525;BME280;55524;51.380;13.372;2024-03-06T00:11:25;100879.78;;;1.99;100.00
68525;BME280;55524;51.380;13.372;2024-03-06T00:13:52;100880.63;;;1.95;100.00
68525;BME280;55524;51.380;13.372;2024-03-06T00:16:18;100885.84;;;1.95;100.00
68525;BME280;55524;51.380;13.372;2024-03-06T00:19:14;100891.00;;;1.87;100.00
68525;BME280;55524;51.380;13.372;2024-03-06T00:21:49;100884.91;;;1.85;100.00
68525;BME280;55524;51.380;13.372;2024-03-06T00:24:16;100884.91;;;1.82;100.00
68525;BME280;55524;51.380;13.372;2024-03-06T00:26:45;100888.38;;;1.84;100.00
68525;BME280;55524;51.380;13.372;2024-03-06T00:29:13;100895.31;;;1.79;100.00
68525;BME280;55524;51.380;13.372;2024-03-06T00:31:44;100889.22;;;1.79;100.00
68525;BME280;55524;51.380;13.372;2024-03-06T00:34:14;100895.31;;;1.85;100.00
68525;BME280;55524;51.380;13.372;2024-03-06T00:36:42;100894.47;;;1.83;100.00
68525;BME280;55524;51.380;13.372;2024-03-06T00:39:09;100894.47;;;1.83;100.00
68525;BME280;55524;51.380;13.372;2024-03-06T00:41:51;100892.66;;;1.78;100.00
68525;BME280;55524;51.380;13.372;2024-03-06T00:44:17;100899.63;;;1.77;100.00
68525;BME280;55524;51.380;13.372;2024-03-06T00:46:46;100892.66;;;1.78;100.00
68525;BME280;55524;51.380;13.372;2024-03-06T00:49:13;100901.34;;;1.78;100.00
68525;BME280;55524;51.380;13.372;2024-03-06T00:51:44;100895.31;;;1.79;100.00
68525;BME280;55524;51.380;13.372;2024-03-06T00:54:14;100902.19;;;1.74;100.00
68525;BME280;55524;51.380;13.372;2024-03-06T00:56:40;100900.47;;;1.73;100.00
68525;BME280;55524;51.380;13.372;2024-03-06T00:59:09;100899.56;;;1.66;100.00
68525;BME280;55524;51.380;13.372;2024-03-06T01:01:39;100903.88;;;1.64;100.00
68525;BME280;55524;51.380;13.372;2024-03-06T01:04:22;100914.28;;;1.60;100.00
68525;BME280;55524;51.380;13.372;2024-03-06T01:06:54;100909.03;;;1.57;100.00
68525;BME280;55524;51.380;13.372;2024-03-06T01:09:29;100911.63;;;1.52;100.00
68525;BME280;55524;51.380;13.372;2024-03-06T01:12:01;100914.19;;;1.49;100.00
68525;BME280;55524;51.380;13.372;2024-03-06T01:14:28;100915.91;;;1.44;100.00
68525;BME280;55524;51.380;13.372;2024-03-06T01:16:57;100918.47;;;1.39;100.00
68525;BME280;55524;51.380;13.372;2024-03-06T01:19:24;100919.28;;;1.32;100.00
68525;BME280;55524;51.380;13.372;2024-03-06T01:21:59;100921.88;;;1.31;100.00
68525;BME280;55524;51.380;13.372;2024-03-06T01:24:25;100921.00;;;1.29;100.00
68525;BME280;55524;51.380;13.372;2024-03-06T01:26:52;100918.34;;;1.24;100.00
68525;BME280;55524;51.380;13.372;2024-03-06T01:29:27;100920.09;;;1.23;100.00
68525;BME280;55524;51.380;13.372;2024-03-06T01:31:54;100919.19;;;1.21;100.00
68525;BME280;55524;51.380;13.372;2024-03-06T01:34:21;100917.44;;;1.20;100.00
68525;BME280;55524;51.380;13.372;2024-03-06T01:36:51;100915.72;;;1.19;100.00
68525;BME280;55524;51.380;13.372;2024-03-06T01:39:20;100922.66;;;1.20;100.00
68525;BME280;55524;51.380;13.372;2024-03-06T01:41:47;100925.19;;;1.13;100.00
68525;BME280;55524;51.380;13.372;2024-03-06T01:44:15;100921.69;;;1.08;100.00
68525;BME280;55524;51.380;13.372;2024-03-06T01:46:45;100925.09;;;1.02;100.00
68525;BME280;55524;51.380;13.372;2024-03-06T01:49:12;100925.94;;;1.01;100.00
68525;BME280;55524;51.380;13.372;2024-03-06T01:51:48;100931.06;;;0.93;100.00
68525;BME280;55524;51.380;13.372;2024-03-06T01:54:21;100934.50;;;0.91;100.00
68525;BME280;55524;51.380;13.372;2024-03-06T01:56:48;100927.53;;;0.84;100.00
68525;BME280;55524;51.380;13.372;2024-03-06T01:59:17;100933.56;;;0.80;100.00
68525;BME280;55524;51.380;13.372;2024-03-06T02:01:47;100921.41;;;0.82;100.00
68525;BME280;55524;51.380;13.372;2024-03-06T02:04:14;100930.97;;;0.81;100.00
68525;BME280;55524;51.380;13.372;2024-03-06T02:06:43;100928.31;;;0.77;100.00
68525;BME280;55524;51.380;13.372;2024-03-06T02:09:12;100930.00;;;0.74;100.00
68525;BME280;55524;51.380;13.372;2024-03-06T02:11:51;100934.31;;;0.69;100.00
68525;BME280;55524;51.380;13.372;2024-03-06T02:14:18;100933.44;;;0.67;100.00
68525;BME280;55524;51.380;13.372;2024-03-06T02:16:44;100929.06;;;0.66;100.00
68525;BME280;55524;51.380;13.372;2024-03-06T02:19:14;100929.88;;;0.61;100.00
68525;BME280;55524;51.380;13.372;2024-03-06T02:21:41;100923.00;;;0.64;100.00
68525;BME280;55524;51.380;13.372;2024-03-06T02:24:07;100928.16;;;0.61;100.00
68525;BME280;55524;51.380;13.372;2024-03-06T02:26:39;100935.09;;;0.61;100.00
68525;BME280;55524;51.380;13.372;2024-03-06T02:29:14;100935.03;;;0.58;100.00
68525;BME280;55524;51.380;13.372;2024-03-06T02:31:49;100941.09;;;0.58;100.00
68525;BME280;55524;51.380;13.372;2024-03-06T02:34:16;100941.97;;;0.59;100.00
68525;BME280;55524;51.380;13.372;2024-03-06T02:36:45;100947.16;;;0.57;100.00
68525;BME280;55524;51.380;13.372;2024-03-06T02:39:11;100949.81;;;0.60;100.00
68525;BME280;55524;51.380;13.372;2024-03-06T02:41:38;100950.69;;;0.61;100.00
68525;BME280;55524;51.380;13.372;2024-03-06T02:44:04;100955.84;;;0.58;100.00
68525;BME280;55524;51.380;13.372;2024-03-06T02:46:30;100957.53;;;0.53;100.00
68525;BME280;55524;51.380;13.372;2024-03-06T02:48:57;100957.53;;;0.54;100.00
68525;BME280;55524;51.380;13.372;2024-03-06T02:51:23;100955.75;;;0.50;100.00
68525;BME280;55524;51.380;13.372;2024-03-06T02:53:52;100959.22;;;0.51;100.00
68525;BME280;55524;51.380;13.372;2024-03-06T02:56:19;100959.22;;;0.49;100.00
68525;BME280;55524;51.380;13.372;2024-03-06T02:58:46;100966.09;;;0.45;100.00
68525;BME280;55524;51.380;13.372;2024-03-06T03:01:24;100966.09;;;0.45;100.00
68525;BME280;55524;51.380;13.372;2024-03-06T03:03:53;100966.91;;;0.43;100.00
68525;BME280;55524;51.380;13.372;2024-03-06T03:06:20;100973.03;;;0.46;100.00
68525;BME280;55524;51.380;13.372;2024-03-06T03:08:49;100981.75;;;0.50;100.00
68525;BME280;55524;51.380;13.372;2024-03-06T03:11:15;100973.88;;;0.44;100.00
68525;BME280;55524;51.380;13.372;2024-03-06T03:13:45;100979.91;;;0.43;100.00
68525;BME280;55524;51.380;13.372;2024-03-06T03:16:18;100985.94;;;0.39;100.00
68525;BME280;55524;51.380;13.372;2024-03-06T03:18:49;100991.13;;;0.36;100.00
68525;BME280;55524;51.380;13.372;2024-03-06T03:21:16;100985.00;;;0.34;100.00
68525;BME280;55524;51.380;13.372;2024-03-06T03:23:45;100985.00;;;0.34;100.00
68525;BME280;55524;51.380;13.372;2024-03-06T03:26:14;100982.47;;;0.37;100.00
68525;BME280;55524;51.380;13.372;2024-03-06T03:28:43;100990.22;;;0.34;100.00
68525;BME280;55524;51.380;13.372;2024-03-06T03:31:13;100988.47;;;0.33;100.00
68525;BME280;55524;51.380;13.372;2024-03-06T03:33:40;100997.97;;;0.31;100.00
68525;BME280;55524;51.380;13.372;2024-03-06T03:36:10;101004.81;;;0.26;100.00
68525;BME280;55524;51.380;13.372;2024-03-06T03:38:44;101006.50;;;0.23;100.00
68525;BME280;55524;51.380;13.372;2024-03-06T03:44:04;101010.84;;;0.21;100.00
68525;BME280;55524;51.380;13.372;2024-03-06T03:46:36;101015.13;;;0.19;100.00
68525;BME280;55524;51.380;13.372;2024-03-06T03:49:03;101010.75;;;0.15;100.00
68525;BME280;55524;51.380;13.372;2024-03-06T03:51:30;101020.25;;;0.13;100.00
68525;BME280;55524;51.380;13.372;2024-03-06T03:53:56;101020.19;;;0.10;100.00
68525;BME280;55524;51.380;13.372;2024-03-06T03:56:23;101013.22;;;0.06;100.00
68525;BME280;55524;51.380;13.372;2024-03-06T03:58:49;101017.50;;;0.03;100.00
68525;BME280;55524;51.380;13.372;2024-03-06T04:01:15;101018.34;;;0.03;100.00
68525;BME280;55524;51.380;13.372;2024-03-06T04:03:45;101028.75;;;0.03;100.00
68525;BME280;55524;51.380;13.372;2024-03-06T04:06:11;101028.69;;;-0.03;100.00
68525;BME280;55524;51.380;13.372;2024-03-06T04:08:38;101032.97;;;-0.05;100.00
68525;BME280;55524;51.380;13.372;2024-03-06T04:11:13;101033.75;;;-0.11;100.00
68525;BME280;55524;51.380;13.372;2024-03-06T04:13:49;101028.50;;;-0.14;100.00
68525;BME280;55524;51.380;13.372;2024-03-06T04:16:27;101038.88;;;-0.15;100.00
68525;BME280;55524;51.380;13.372;2024-03-06T04:19:03;101044.91;;;-0.16;100.00
68525;BME280;55524;51.380;13.372;2024-03-06T04:21:29;101045.75;;;-0.17;100.00
68525;BME280;55524;51.380;13.372;2024-03-06T04:23:59;101044.88;;;-0.18;100.00
68525;BME280;55524;51.380;13.372;2024-03-06T04:26:25;101042.28;;;-0.18;100.00
68525;BME280;55524;51.380;13.372;2024-03-06T04:28:58;101050.88;;;-0.20;100.00
68525;BME280;55524;51.380;13.372;2024-03-06T04:31:33;101048.34;;;-0.17;100.00
68525;BME280;55524;51.380;13.372;2024-03-06T04:34:00;101049.09;;;-0.26;100.00
68525;BME280;55524;51.380;13.372;2024-03-06T04:36:30;101054.22;;;-0.29;100.00
68525;BME280;55524;51.380;13.372;2024-03-06T04:39:26;101064.41;;;-0.41;100.00
68525;BME280;55524;51.380;13.372;2024-03-06T04:41:58;101061.59;;;-0.54;100.00
68525;BME280;55524;51.380;13.372;2024-03-06T04:44:33;101058.78;;;-0.64;100.00
68525;BME280;55524;51.380;13.372;2024-03-06T04:47:02;101058.50;;;-0.80;100.00
68525;BME280;55524;51.380;13.372;2024-03-06T04:49:31;101062.66;;;-0.89;100.00
68525;BME280;55524;51.380;13.372;2024-03-06T04:52:01;101067.56;;;-1.03;100.00
68525;BME280;55524;51.380;13.372;2024-03-06T04:54:30;101068.34;;;-1.07;100.00
68525;BME280;55524;51.380;13.372;2024-03-06T04:56:56;101063.94;;;-1.13;100.00
68525;BME280;55524;51.380;13.372;2024-03-06T04:59:25;101068.19;;;-1.15;100.00
68525;BME280;55524;51.380;13.372;2024-03-06T05:01:55;101081.16;;;-1.15;100.00
68525;BME280;55524;51.380;13.372;2024-03-06T05:04:42;101076.88;;;-1.14;100.00
68525;BME280;55524;51.380;13.372;2024-03-06T05:07:08;101074.22;;;-1.16;100.00
68525;BME280;55524;51.380;13.372;2024-03-06T05:09:55;101077.59;;;-1.21;100.00
68525;BME280;55524;51.380;13.372;2024-03-06T05:12:22;101087.84;;;-1.26;100.00
68525;BME280;55524;51.380;13.372;2024-03-06T05:14:58;101086.91;;;-1.30;100.00
68525;BME280;55524;51.380;13.372;2024-03-06T05:17:24;101092.03;;;-1.33;100.00
68525;BME280;55524;51.380;13.372;2024-03-06T05:20:11;101090.19;;;-1.38;100.00
68525;BME280;55524;51.380;13.372;2024-03-06T05:22:37;101093.56;;;-1.42;100.00
68525;BME280;55524;51.380;13.372;2024-03-06T05:25:04;101102.13;;;-1.45;100.00
68525;BME280;55524;51.380;13.372;2024-03-06T05:27:31;101103.84;;;-1.45;100.00
68525;BME280;55524;51.380;13.372;2024-03-06T05:30:07;101104.75;;;-1.43;100.00
68525;BME280;55524;51.380;13.372;2024-03-06T05:32:34;101106.63;;;-1.38;100.00
68525;BME280;55524;51.380;13.372;2024-03-06T05:35:00;101108.00;;;-1.52;100.00
68525;BME280;55524;51.380;13.372;2024-03-06T05:37:27;101105.34;;;-1.55;100.00
68525;BME280;55524;51.380;13.372;2024-03-06T05:39:55;101107.13;;;-1.54;100.00
68525;BME280;55524;51.380;13.372;2024-03-06T05:42:31;101107.16;;;-1.51;100.00
68525;BME280;55524;51.380;13.372;2024-03-06T05:45:00;101102.03;;;-1.50;100.00
68525;BME280;55524;51.380;13.372;2024-03-06T05:47:35;101103.75;;;-1.50;100.00
68525;BME280;55524;51.380;13.372;2024-03-06T05:50:01;101105.50;;;-1.49;100.00
68525;BME280;55524;51.380;13.372;2024-03-06T05:52:33;101113.28;;;-1.48;100.00
68525;BME280;55524;51.380;13.372;2024-03-06T05:55:00;101114.16;;;-1.49;100.00
68525;BME280;55524;51.380;13.372;2024-03-06T05:57:46;101115.00;;;-1.48;100.00
68525;BME280;55524;51.380;13.372;2024-03-06T06:00:13;101115.09;;;-1.45;100.00
68525;BME280;55524;51.380;13.372;2024-03-06T06:03:01;101115.94;;;-1.46;100.00
68525;BME280;55524;51.380;13.372;2024-03-06T06:05:27;101119.22;;;-1.53;100.00
68525;BME280;55524;51.380;13.372;2024-03-06T06:07:56;101126.22;;;-1.49;100.00
68525;BME280;55524;51.380;13.372;2024-03-06T06:10:22;101126.19;;;-1.51;100.00
68525;BME280;55524;51.380;13.372;2024-03-06T06:12:49;101132.22;;;-1.52;100.00
68525;BME280;55524;51.380;13.372;2024-03-06T06:15:46;101133.22;;;-1.45;100.00
68525;BME280;55524;51.380;13.372;2024-03-06T06:18:33;101136.00;;;-1.37;100.00
68525;BME280;55524;51.380;13.372;2024-03-06T06:21:12;101142.13;;;-1.34;100.00
68525;BME280;55524;51.380;13.372;2024-03-06T06:23:38;101144.03;;;-1.27;100.00
68525;BME280;55524;51.380;13.372;2024-03-06T06:26:09;101149.31;;;-1.20;100.00
68525;BME280;55524;51.380;13.372;2024-03-06T06:28:40;101154.66;;;-1.14;100.00
68525;BME280;55524;51.380;13.372;2024-03-06T06:31:06;101159.19;;;-1.04;100.00
68525;BME280;55524;51.380;13.372;2024-03-06T06:33:33;101160.16;;;-0.99;100.00
68525;BME280;55524;51.380;13.372;2024-03-06T06:35:59;101168.91;;;-0.94;100.00
68525;BME280;55524;51.380;13.372;2024-03-06T06:38:26;101173.41;;;-0.87;100.00
68525;BME280;55524;51.380;13.372;2024-03-06T06:40:52;101170.91;;;-0.81;100.00
68525;BME280;55524;51.380;13.372;2024-03-06T06:43:18;101178.78;;;-0.78;100.00
68525;BME280;55524;51.380;13.372;2024-03-06T06:45:45;101178.88;;;-0.71;100.00
68525;BME280;55524;51.380;13.372;2024-03-06T06:48:11;101186.03;;;-0.60;100.00
68525;BME280;55524;51.380;13.372;2024-03-06T06:50:38;101188.63;;;-0.61;100.00
68525;BME280;55524;51.380;13.372;2024-03-06T06:53:04;101187.03;;;-0.55;100.00
68525;BME280;55524;51.380;13.372;2024-03-06T06:55:33;101190.66;;;-0.45;100.00
68525;BME280;55524;51.380;13.372;2024-03-06T06:58:04;101194.34;;;-0.34;100.00
68525;BME280;55524;51.380;13.372;2024-03-06T07:00:30;101196.16;;;-0.30;100.00
68525;BME280;55524;51.380;13.372;2024-03-06T07:02:57;101196.28;;;-0.23;100.00
68525;BME280;55524;51.380;13.372;2024-03-06T07:05:26;101200.00;;;-0.09;100.00
68525;BME280;55524;51.380;13.372;2024-03-06T07:08:15;101204.53;;;0.01;100.00
68525;BME280;55524;51.380;13.372;2024-03-06T07:10:41;101197.81;;;0.14;100.00
68525;BME280;55524;51.380;13.372;2024-03-06T07:13:13;101204.03;;;0.23;100.00
68525;BME280;55524;51.380;13.372;2024-03-06T07:15:40;101197.28;;;0.35;100.00
68525;BME280;55524;51.380;13.372;2024-03-06T07:18:06;101194.88;;;0.45;100.00
68525;BME280;55524;51.380;13.372;2024-03-06T07:20:32;101198.56;;;0.60;100.00
68525;BME280;55524;51.380;13.372;2024-03-06T07:22:58;101202.34;;;0.82;100.00
68525;BME280;55524;51.380;13.372;2024-03-06T07:25:25;101196.50;;;0.98;100.00
68525;BME280;55524;51.380;13.372;2024-03-06T07:27:54;101199.41;;;1.94;100.00
68525;BME280;55524;51.380;13.372;2024-03-06T07:30:20;101183.19;;;3.93;100.00
68525;BME280;55524;51.380;13.372;2024-03-06T07:33:05;101114.13;;;5.14;100.00
68525;BME280;55524;51.380;13.372;2024-03-06T07:35:32;101059.25;;;6.20;100.00
68525;BME280;55524;51.380;13.372;2024-03-06T07:37:58;101036.13;;;6.56;100.00
68525;BME280;55524;51.380;13.372;2024-03-06T07:40:25;101015.03;;;7.30;100.00
68525;BME280;55524;51.380;13.372;2024-03-06T07:42:51;101027.75;;;6.97;100.00
68525;BME280;55524;51.380;13.372;2024-03-06T07:45:18;101025.81;;;7.08;100.00
68525;BME280;55524;51.380;13.372;2024-03-06T07:47:44;101050.81;;;6.74;100.00
68525;BME280;55524;51.380;13.372;2024-03-06T07:50:31;101036.63;;;7.50;100.00
68525;BME280;55524;51.380;13.372;2024-03-06T07:53:27;101044.88;;;7.24;100.00
68525;BME280;55524;51.380;13.372;2024-03-06T07:55:53;101054.09;;;6.91;100.00
68525;BME280;55524;51.380;13.372;2024-03-06T07:58:19;101075.47;;;6.62;100.00
68525;BME280;55524;51.380;13.372;2024-03-06T08:00:47;101089.78;;;6.30;100.00
68525;BME280;55524;51.380;13.372;2024-03-06T08:03:13;101125.09;;;5.86;100.00
68525;BME280;55524;51.380;13.372;2024-03-06T08:05:40;101132.19;;;5.67;100.00
68525;BME280;55524;51.380;13.372;2024-03-06T08:08:09;101138.28;;;5.73;100.00
68525;BME280;55524;51.380;13.372;2024-03-06T08:10:44;101143.59;;;5.60;100.00
68525;BME280;55524;51.380;13.372;2024-03-06T08:13:11;101155.94;;;5.37;100.00
68525;BME280;55524;51.380;13.372;2024-03-06T08:15:37;101161.25;;;5.20;100.00
68525;BME280;55524;51.380;13.372;2024-03-06T08:18:08;101177.94;;;4.96;100.00
68525;BME280;55524;51.380;13.372;2024-03-06T08:20:34;101173.53;;;5.07;100.00
68525;BME280;55524;51.380;13.372;2024-03-06T08:23:00;101184.00;;;5.07;100.00
68525;BME280;55524;51.380;13.372;2024-03-06T08:25:29;101190.13;;;4.97;100.00
68525;BME280;55524;51.380;13.372;2024-03-06T08:27:59;101202.41;;;4.63;100.00
68525;BME280;55524;51.380;13.372;2024-03-06T08:30:28;101190.03;;;5.32;100.00
68525;BME280;55524;51.380;13.372;2024-03-06T08:32:59;101196.19;;;5.22;100.00
68525;BME280;55524;51.380;13.372;2024-03-06T08:35:25;101192.53;;;5.60;100.00
68525;BME280;55524;51.380;13.372;2024-03-06T08:37:54;101181.97;;;5.74;100.00
68525;BME280;55524;51.380;13.372;2024-03-06T08:40:21;101183.72;;;5.73;100.00
68525;BME280;55524;51.380;13.372;2024-03-06T08:42:48;101181.81;;;6.07;100.00
68525;BME280;55524;51.380;13.372;2024-03-06T08:45:20;101185.53;;;5.60;100.00
68525;BME280;55524;51.380;13.372;2024-03-06T08:47:49;101166.91;;;6.09;100.00
68525;BME280;55524;51.380;13.372;2024-03-06T08:50:25;101169.56;;;6.05;100.00
68525;BME280;55524;51.380;13.372;2024-03-06T08:52:52;101175.59;;;6.18;100.00
68525;BME280;55524;51.380;13.372;2024-03-06T08:55:21;101169.31;;;6.37;100.00
68525;BME280;55524;51.380;13.372;2024-03-06T08:57:58;101167.34;;;6.63;100.00
68525;BME280;55524;51.380;13.372;2024-03-06T09:00:30;101179.94;;;6.23;100.00
68525;BME280;55524;51.380;13.372;2024-03-06T09:03:16;101182.44;;;6.40;100.00
68525;BME280;55524;51.380;13.372;2024-03-06T09:05:42;101191.34;;;6.18;100.00
68525;BME280;55524;51.380;13.372;2024-03-06T09:08:09;101196.59;;;6.18;100.00
68525;BME280;55524;51.380;13.372;2024-03-06T09:10:37;101181.53;;;6.43;100.00
68525;BME280;55524;51.380;13.372;2024-03-06T09:13:07;101182.31;;;6.54;100.00
68525;BME280;55524;51.380;13.372;2024-03-06T09:15:37;101179.63;;;6.61;100.00
68525;BME280;55524;51.380;13.372;2024-03-06T09:18:03;101184.09;;;6.53;100.00
68525;BME280;55524;51.380;13.372;2024-03-06T09:20:38;101197.97;;;6.64;100.00
68525;BME280;55524;51.380;13.372;2024-03-06T09:23:07;101188.81;;;7.05;100.00
68525;BME280;55524;51.380;13.372;2024-03-06T09:25:37;101181.53;;;6.43;100.00
68525;BME280;55524;51.380;13.372;2024-03-06T09:28:03;101183.28;;;6.40;100.00
68525;BME280;55524;51.380;13.372;2024-03-06T09:30:30;101187.47;;;6.64;100.00
68525;BME280;55524;51.380;13.372;2024-03-06T09:33:17;101174.00;;;6.97;100.00
68525;BME280;55524;51.380;13.372;2024-03-06T09:35:43;101174.06;;;6.94;100.00
68525;BME280;55524;51.380;13.372;2024-03-06T09:38:32;101155.03;;;7.46;100.00
68525;BME280;55524;51.380;13.372;2024-03-06T09:40:58;101162.44;;;7.81;100.00
68525;BME280;55524;51.380;13.372;2024-03-06T09:46:11;101148.56;;;8.27;100.00
68525;BME280;55524;51.380;13.372;2024-03-06T09:48:45;101129.19;;;8.31;100.00
68525;BME280;55524;51.380;13.372;2024-03-06T09:51:12;101130.03;;;8.33;100.00
68525;BME280;55524;51.380;13.372;2024-03-06T09:53:40;101119.28;;;8.48;100.00
68525;BME280;55524;51.380;13.372;2024-03-06T09:56:10;101119.16;;;8.54;100.00
68525;BME280;55524;51.380;13.372;2024-03-06T09:58:36;101120.88;;;8.57;100.00
68525;BME280;55524;51.380;13.372;2024-03-06T10:01:03;101118.69;;;8.79;100.00
68525;BME280;55524;51.380;13.372;2024-03-06T10:03:33;101119.72;;;8.72;100.00
68525;BME280;55524;51.380;13.372;2024-03-06T10:06:01;101119.00;;;8.64;100.00
68525;BME280;55524;51.380;13.372;2024-03-06T10:08:31;101109.81;;;9.26;100.00
68525;BME280;55524;51.380;13.372;2024-03-06T10:11:18;101076.38;;;10.04;91.79
68525;BME280;55524;51.380;13.372;2024-03-06T10:13:45;101071.06;;;10.06;88.93
68525;BME280;55524;51.380;13.372;2024-03-06T10:16:11;101078.56;;;9.87;88.52
68525;BME280;55524;51.380;13.372;2024-03-06T10:18:40;101092.00;;;9.39;93.57
68525;BME280;55524;51.380;13.372;2024-03-06T10:21:15;101099.66;;;9.50;93.05
68525;BME280;55524;51.380;13.372;2024-03-06T10:23:52;101106.00;;;9.41;94.03
68525;BME280;55524;51.380;13.372;2024-03-06T10:26:25;101110.28;;;9.47;94.17
68525;BME280;55524;51.380;13.372;2024-03-06T10:28:51;101115.72;;;9.39;93.87
68525;BME280;55524;51.380;13.372;2024-03-06T10:31:28;101112.03;;;9.46;94.06
68525;BME280;55524;51.380;13.372;2024-03-06T10:33:54;101125.63;;;9.28;96.26
68525;BME280;55524;51.380;13.372;2024-03-06T10:36:20;101103.19;;;9.49;92.72
68525;BME280;55524;51.380;13.372;2024-03-06T10:38:49;101109.53;;;9.40;93.00
68525;BME280;55524;51.380;13.372;2024-03-06T10:41:26;101101.69;;;9.39;90.64
68525;BME280;55524;51.380;13.372;2024-03-06T10:43:59;101118.81;;;9.18;94.29
68525;BME280;55524;51.380;13.372;2024-03-06T10:46:31;101117.31;;;9.04;95.86
68525;BME280;55524;51.380;13.372;2024-03-06T10:49:04;101120.31;;;8.86;95.78
68525;BME280;55524;51.380;13.372;2024-03-06T10:51:35;101111.34;;;8.95;93.30
68525;BME280;55524;51.380;13.372;2024-03-06T10:54:02;101117.22;;;8.64;92.23
68525;BME280;55524;51.380;13.372;2024-03-06T10:56:38;101112.97;;;8.57;92.06
68525;BME280;55524;51.380;13.372;2024-03-06T10:59:06;101110.09;;;8.18;92.86
68525;BME280;55524;51.380;13.372;2024-03-06T11:01:35;101127.53;;;8.25;96.12
68525;BME280;55524;51.380;13.372;2024-03-06T11:04:03;101130.50;;;8.59;95.49
68525;BME280;55524;51.380;13.372;2024-03-06T11:06:29;101122.72;;;8.52;92.78
68525;BME280;55524;51.380;13.372;2024-03-06T11:09:17;101115.84;;;8.43;92.11
68525;BME280;55524;51.380;13.372;2024-03-06T11:11:53;101125.81;;;8.23;95.22
68525;BME280;55524;51.380;13.372;2024-03-06T11:14:25;101112.25;;;8.49;93.29
68525;BME280;55524;51.380;13.372;2024-03-06T11:17:10;101090.75;;;9.14;85.82
68525;BME280;55524;51.380;13.372;2024-03-06T11:28:34;101137.66;;;7.96;100.00
68525;BME280;55524;51.380;13.372;2024-03-06T11:31:03;101149.38;;;7.75;100.00
68525;BME280;55524;51.380;13.372;2024-03-06T11:33:40;101157.44;;;7.62;100.00
68525;BME280;55524;51.380;13.372;2024-03-06T11:39:02;101162.63;;;7.69;100.00
68525;BME280;55524;51.380;13.372;2024-03-06T11:44:05;101156.19;;;7.89;100.00
68525;BME280;55524;51.380;13.372;2024-03-06T11:49:37;101170.81;;;7.44;100.00
68525;BME280;55524;51.380;13.372;2024-03-06T11:52:09;101172.00;;;7.19;100.00
68525;BME280;55524;51.380;13.372;2024-03-06T11:54:36;101172.91;;;7.18;100.00
68525;BME280;55524;51.380;13.372;2024-03-06T11:57:08;101169.34;;;7.22;100.00
68525;BME280;55524;51.380;13.372;2024-03-06T11:59:37;101162.31;;;7.25;100.00
68525;BME280;55524;51.380;13.372;2024-03-06T12:02:06;101153.91;;;7.65;97.84
68525;BME280;55524;51.380;13.372;2024-03-06T12:04:37;101140.56;;;7.77;94.31
68525;BME280;55524;51.380;13.372;2024-03-06T12:07:04;101125.34;;;7.98;91.20
68525;BME280;55524;51.380;13.372;2024-03-06T12:09:36;101124.28;;;8.09;91.73
68525;BME280;55524;51.380;13.372;2024-03-06T12:12:05;101130.38;;;8.13;93.55
68525;BME280;55524;51.380;13.372;2024-03-06T12:14:36;101136.94;;;7.86;95.72
68525;BME280;55524;51.380;13.372;2024-03-06T12:17:05;101127.25;;;7.88;92.42
68525;BME280;55524;51.380;13.372;2024-03-06T12:19:35;101122.34;;;7.65;90.79
68525;BME280;55524;51.380;13.372;2024-03-06T12:22:34;101120.06;;;7.41;90.33
68525;BME280;55524;51.380;13.372;2024-03-06T12:25:09;101126.06;;;7.47;91.60
68525;BME280;55524;51.380;13.372;2024-03-06T12:27:36;101115.94;;;7.81;89.70
68525;BME280;55524;51.380;13.372;2024-03-06T12:30:43;101094.75;;;8.45;85.87
68525;BME280;55524;51.380;13.372;2024-03-06T12:33:10;101077.31;;;8.84;81.02
68525;BME280;55524;51.380;13.372;2024-03-06T12:35:42;101074.22;;;9.05;80.34
68525;BME280;55524;51.380;13.372;2024-03-06T12:38:16;101058.41;;;9.46;76.53
68525;BME280;55524;51.380;13.372;2024-03-06T12:40:44;101063.00;;;9.38;76.47
68525;BME280;55524;51.380;13.372;2024-03-06T12:43:11;101027.00;;;9.72;69.46
68525;BME280;55524;51.380;13.372;2024-03-06T12:45:46;101005.72;;;9.04;66.95
68525;BME280;55524;51.380;13.372;2024-03-06T12:51:14;101030.38;;;9.03;70.04
68525;BME280;55524;51.380;13.372;2024-03-06T12:53:50;101039.81;;;9.52;69.41
68525;BME280;55524;51.380;13.372;2024-03-06T12:56:17;101023.81;;;9.59;66.83
68525;BME280;55524;51.380;13.372;2024-03-06T12:58:44;101009.19;;;9.82;65.08
68525;BME280;55524;51.380;13.372;2024-03-06T13:01:10;100994.47;;;10.06;64.28
68525;BME280;55524;51.380;13.372;2024-03-06T13:03:39;101010.28;;;10.07;64.97
68525;BME280;55524;51.380;13.372;2024-03-06T13:06:06;101009.03;;;10.21;65.26
68525;BME280;55524;51.380;13.372;2024-03-06T13:08:53;101029.88;;;9.61;69.07
68525;BME280;55524;51.380;13.372;2024-03-06T13:11:21;101048.72;;;9.06;71.14
68525;BME280;55524;51.380;13.372;2024-03-06T13:13:59;101062.88;;;9.03;75.40
68525;BME280;55524;51.380;13.372;2024-03-06T13:16:47;101062.22;;;9.32;74.54
68525;BME280;55524;51.380;13.372;2024-03-06T13:19:13;101064.28;;;9.58;75.02
68525;BME280;55524;51.380;13.372;2024-03-06T13:21:39;101058.56;;;9.77;73.85
68525;BME280;55524;51.380;13.372;2024-03-06T13:24:26;101043.50;;;9.82;71.82